Bremerton, WA

10:29 PM PDT on October 25, 2014 (GMT -0700)
Renton Municipal | Change Station
CLOSE
Current Station
Airport
Location: Renton,
Elevation: 30 ft
Nearby Weather Stations
Active Advisory: High Wind Warning

Elev 30 ft 47.49 °N, 122.22 °W | Updated 21 minutes ago

Overcast
Overcast
54 °F
Feels Like 54 °F
N
14
Wind Variable Wind from South
Gusts 29 mph

Today
High -- | Low -- °F
--% Chance of Precip.
Yesterday
High -- | Low -- °F
Precip. -- in
7:44 AM 6:04 PM
Waxing Crescent, 6% visible
Pressure 29.62 in
Visibility 10.0 miles
Clouds Scattered Clouds 2600 ft
Mostly Cloudy 12000 ft
Dew Point 48 °F
Humidity 80%
Rainfall 0.27 in
Snow Depth Not available.
UV 0 out of 12
Pollen .40 out of 12
Air Quality Not available.
Flu Activity Sporadic
SPECI KRNT 260508Z AUTO 17012G25KT 10SM SCT026 BKN120 12/09 A2962 RMK AO2 PRESRR T01220089

More Conditions Fewer Conditions

Pressure 29.62 in
Visibility 10.0 miles
Clouds Scattered Clouds 2600 ft
Mostly Cloudy 12000 ft
Dew Point 48 °F
Humidity 80%
Rainfall 0.27 in
Snow Depth Not available.
UV 0 out of 12
Pollen .40 out of 12
Air Quality Not available.
Flu Activity Sporadic
SPECI KRNT 260508Z AUTO 17012G25KT 10SM SCT026 BKN120 12/09 A2962 RMK AO2 PRESRR T01220089

More Conditions Fewer Conditions

10-Day Weather Forecast

Almanac

Astronomy

Oct. 25, 2014 Rise Set
Actual Time 7:44 AM PDT 6:04 PM PDT
Civil Twilight 7:12 AM PDT 6:35 PM PDT
Nautical Twilight 6:36 AM PDT 7:11 PM PDT
Astronomical Twilight 6:00 AM PDT 7:47 PM PDT
Moon 9:34 AM PDT (10/25) 7:24 PM PDT (10/25)
Length of Visible Light 11h 23m
Length of Day
10h 20m
Tomorrow will be 3m 12s shorter.
Waxing Crescent, 6% of the Moon is Illuminated
Oct 26
Waxing Crescent
Oct 30
First Quarter
Nov 6
Full
Nov 14
Last Quarter
Nov 22
New

Yesterday's Extremes

State Highs State Lows

Community

WunderPhotos

Upload Photos

1,765,112 photos uploaded!

Nearby

Snow Depth

Station Depth Elevation
Dungeness 0 in 4100 ft
Alpine Meadows 0 in 3500 ft
Mount Gardner 0 in 3000 ft
Burnt Mountain 0 in 4200 ft
Meadows Pass 1 in 3500 ft

Earthquake Activity

City Distance Mag. Time & Date
Birch Bay, Washington 84 miles 2.8 3:02 AM PDT
2014-10-24
Minimum magnitude displayed is 2.5.

Coastal Water Temperatures

Place Temperature
Port Townsend, WA 53.1 °F
Friday Harbor, WA 51.1 °F
Tacoma, WA 54.0 °F

Nearby Weather Stations